Time;durP1;ratioP1;P1;durP2;ratioP2;P2;SDS_P1;SDS_P2;PMS_P1;PMS_P2;Temp;Humidity;BMP_temperature;BMP_pressure;BME280_temperature;BME280_humidity;BME280_pressure;Samples;Min_cycle;Max_cycle;Signal;HPM_P1;HPM_P2
2021/04/18 00:02:24;;;;;;;11.13;8.02;;;8.00;99.90;;;;;;4965120;28;20026;-69
2021/04/18 00:04:49;;;;;;;9.05;8.15;;;8.00;99.90;;;;;;4962673;28;20038;-69
2021/04/18 00:07:15;;;;;;;8.38;7.68;;;8.10;99.90;;;;;;4965324;28;20390;-69
2021/04/18 00:09:43;;;;;;;8.43;7.63;;;8.00;99.90;;;;;;4962042;28;20472;-69
2021/04/18 00:12:09;;;;;;;8.65;7.95;;;8.00;99.90;;;;;;4965857;28;20502;-69
2021/04/18 00:14:34;;;;;;;8.65;7.95;;;8.10;99.90;;;;;;4962085;28;20042;-69
2021/04/18 00:17:00;;;;;;;10.10;8.70;;;8.10;99.90;;;;;;4960474;28;20035;-68
2021/04/18 00:19:25;;;;;;;9.77;8.88;;;8.00;99.90;;;;;;4965178;28;20023;-69
2021/04/18 00:21:51;;;;;;;9.35;8.30;;;8.00;99.90;;;;;;4966786;28;20534;-69
2021/04/18 00:24:17;;;;;;;11.10;9.02;;;8.00;99.90;;;;;;4965067;28;20070;-68
2021/04/18 00:26:43;;;;;;;11.00;9.38;;;8.10;99.90;;;;;;4968101;28;20080;-69
2021/04/18 00:29:08;;;;;;;9.82;8.80;;;8.10;99.90;;;;;;4962973;28;20065;-69
2021/04/18 00:31:34;;;;;;;12.02;9.32;;;8.00;99.90;;;;;;4968334;28;20511;-69
2021/04/18 00:34:00;;;;;;;10.23;9.25;;;8.00;99.90;;;;;;4960306;28;20027;-69
2021/04/18 00:36:26;;;;;;;10.63;9.65;;;8.00;99.90;;;;;;4961011;28;20023;-69
2021/04/18 00:38:51;;;;;;;13.35;9.15;;;8.00;99.90;;;;;;4958733;28;20038;-69
2021/04/18 00:41:17;;;;;;;16.08;9.70;;;8.00;99.90;;;;;;4960739;28;20023;-69
2021/04/18 00:43:43;;;;;;;11.68;9.68;;;8.10;99.90;;;;;;4956192;28;20031;-69
2021/04/18 00:46:12;;;;;;;10.52;9.52;;;7.90;99.90;;;;;;4957112;28;20027;-68
2021/04/18 00:48:43;;;;;;;13.93;9.77;;;7.90;99.90;;;;;;4960298;28;20036;-69
2021/04/18 00:51:11;;;;;;;14.90;10.18;;;7.90;99.90;;;;;;4969631;28;20030;-69
2021/04/18 00:53:37;;;;;;;13.25;9.80;;;7.80;99.90;;;;;;4959958;28;20016;-68
2021/04/18 00:56:05;;;;;;;12.07;9.60;;;7.80;99.90;;;;;;4969550;28;20050;-69
2021/04/18 00:58:32;;;;;;;11.48;10.27;;;7.80;99.90;;;;;;4958241;28;20039;-69
2021/04/18 01:00:57;;;;;;;12.48;11.05;;;7.70;99.90;;;;;;4969393;28;20018;-69
2021/04/18 01:03:23;;;;;;;17.50;10.82;;;7.70;99.90;;;;;;4976763;28;20528;-69
2021/04/18 01:05:49;;;;;;;14.15;11.23;;;7.70;99.90;;;;;;4968745;28;20058;-69
2021/04/18 01:08:14;;;;;;;14.50;10.15;;;7.60;99.90;;;;;;4966734;28;20077;-69
2021/04/18 01:10:41;;;;;;;13.13;10.57;;;7.50;99.90;;;;;;4971104;28;20031;-69
2021/04/18 01:13:07;;;;;;;14.77;10.88;;;7.50;99.90;;;;;;4973232;28;20049;-68
2021/04/18 01:15:33;;;;;;;14.10;10.57;;;7.50;99.90;;;;;;4961837;28;20522;-69
2021/04/18 01:17:58;;;;;;;12.27;11.05;;;7.40;99.90;;;;;;4964669;28;20038;-69
2021/04/18 01:20:25;;;;;;;15.00;10.43;;;7.50;99.90;;;;;;4969029;28;20019;-69
2021/04/18 01:22:51;;;;;;;14.05;12.18;;;7.40;99.90;;;;;;4966579;28;20122;-69
2021/04/18 01:25:18;;;;;;;12.35;11.15;;;7.40;99.90;;;;;;4968095;28;20034;-69
2021/04/18 01:27:46;;;;;;;12.75;11.15;;;7.30;99.90;;;;;;4966808;28;20117;-69
2021/04/18 01:30:20;;;;;;;15.45;11.00;;;7.40;99.90;;;;;;4966588;28;20023;-69
2021/04/18 01:32:49;;;;;;;18.00;11.68;;;7.40;99.90;;;;;;4960171;28;20035;-69
2021/04/18 01:35:15;;;;;;;12.23;11.00;;;7.30;99.90;;;;;;4963029;28;20058;-69
2021/04/18 01:37:42;;;;;;;15.00;11.57;;;7.40;99.90;;;;;;4965793;28;20399;-69
2021/04/18 01:40:16;;;;;;;16.25;10.60;;;7.40;99.90;;;;;;4964271;28;20015;-69
2021/04/18 01:42:44;;;;;;;15.15;11.90;;;7.30;99.90;;;;;;4967378;28;20023;-69
2021/04/18 01:45:11;;;;;;;12.93;11.25;;;7.40;99.90;;;;;;4967801;28;20029;-71
2021/04/18 01:47:37;;;;;;;13.40;12.05;;;7.30;99.90;;;;;;4967401;28;20030;-69
2021/04/18 01:50:11;;;;;;;15.85;12.77;;;7.20;99.90;;;;;;4971531;28;20466;-69
2021/04/18 01:52:38;;;;;;;14.57;12.23;;;7.10;99.90;;;;;;4968000;28;20034;-69
2021/04/18 01:55:05;;;;;;;13.52;12.18;;;7.20;99.90;;;;;;4969289;28;20440;-69
2021/04/18 01:57:32;;;;;;;14.63;10.93;;;7.20;99.90;;;;;;4966292;28;20710;-70
2021/04/18 01:59:58;;;;;;;12.50;11.27;;;7.20;99.90;;;;;;4968130;28;20015;-69
2021/04/18 02:02:24;;;;;;;14.45;11.90;;;7.20;99.90;;;;;;4967965;28;20030;-69
2021/04/18 02:04:52;;;;;;;13.88;12.30;;;7.10;99.90;;;;;;4962727;28;20510;-69
2021/04/18 02:07:17;;;;;;;13.73;11.95;;;7.00;99.90;;;;;;4966642;28;20027;-69
2021/04/18 02:09:43;;;;;;;13.77;11.95;;;7.00;99.90;;;;;;4964020;28;20030;-69
2021/04/18 02:12:10;;;;;;;15.27;12.32;;;7.00;99.90;;;;;;4968050;28;20088;-69
2021/04/18 02:14:36;;;;;;;12.80;11.25;;;6.90;99.90;;;;;;4960077;28;20475;-69
2021/04/18 02:17:03;;;;;;;18.10;12.07;;;7.10;99.90;;;;;;4955389;28;20145;-69
2021/04/18 02:19:29;;;;;;;24.92;13.40;;;7.10;99.90;;;;;;4953547;28;20023;-69
2021/04/18 02:21:55;;;;;;;14.13;12.40;;;7.00;99.90;;;;;;4964956;28;20047;-69
2021/04/18 02:24:21;;;;;;;14.45;12.30;;;7.00;99.90;;;;;;4957422;28;20154;-69
2021/04/18 02:26:46;;;;;;;14.23;12.30;;;7.10;99.90;;;;;;4964171;28;20109;-69
2021/04/18 02:29:12;;;;;;;19.38;13.23;;;7.10;99.90;;;;;;4967054;28;20019;-69
2021/04/18 02:31:38;;;;;;;14.60;13.18;;;6.90;99.90;;;;;;4953251;28;20592;-69
2021/04/18 02:34:04;;;;;;;16.50;12.95;;;7.00;99.90;;;;;;4960283;28;20175;-69
2021/04/18 02:36:30;;;;;;;15.05;13.50;;;6.90;99.90;;;;;;4970250;28;20031;-69
2021/04/18 02:38:55;;;;;;;16.75;13.82;;;6.80;99.90;;;;;;4957243;28;20402;-69
2021/04/18 02:41:22;;;;;;;17.70;13.20;;;6.90;99.90;;;;;;4952619;28;20026;-70
2021/04/18 02:43:48;;;;;;;18.02;13.82;;;6.90;99.90;;;;;;4960328;28;20027;-69
2021/04/18 02:46:13;;;;;;;16.83;14.07;;;6.90;99.90;;;;;;4957661;28;20113;-69
2021/04/18 02:48:39;;;;;;;18.05;14.43;;;6.70;99.90;;;;;;4964066;28;20028;-69
2021/04/18 02:51:05;;;;;;;16.50;13.32;;;6.70;99.90;;;;;;4970025;28;20034;-69
2021/04/18 02:53:31;;;;;;;15.38;13.70;;;6.90;99.90;;;;;;4963865;28;20031;-69
2021/04/18 02:55:57;;;;;;;21.45;14.82;;;6.80;99.90;;;;;;4969988;28;20118;-69
2021/04/18 02:58:22;;;;;;;18.42;14.35;;;6.50;99.90;;;;;;4965280;28;20723;-69
2021/04/18 03:00:48;;;;;;;18.45;15.05;;;6.40;99.90;;;;;;4968379;28;20038;-69
2021/04/18 03:03:14;;;;;;;16.17;14.57;;;6.70;99.90;;;;;;4964765;28;20109;-69
2021/04/18 03:05:40;;;;;;;16.70;14.85;;;6.60;99.90;;;;;;4965882;28;20022;-69
2021/04/18 03:08:06;;;;;;;16.45;13.90;;;6.60;99.90;;;;;;4964736;28;20090;-68
2021/04/18 03:10:31;;;;;;;18.95;15.40;;;6.50;99.90;;;;;;4961666;28;20027;-69
2021/04/18 03:12:57;;;;;;;16.80;15.10;;;6.50;99.90;;;;;;4967143;28;20510;-70
2021/04/18 03:15:23;;;;;;;19.95;15.45;;;6.30;99.90;;;;;;4966134;28;20049;-69
2021/04/18 03:17:50;;;;;;;21.15;16.48;;;6.60;99.90;;;;;;4964041;28;20642;-69
2021/04/18 03:20:16;;;;;;;20.27;16.73;;;6.40;99.90;;;;;;4961341;28;20463;-69
2021/04/18 03:22:41;;;;;;;19.40;16.27;;;6.30;99.90;;;;;;4965133;28;20066;-69
2021/04/18 03:25:08;;;;;;;19.70;15.85;;;6.40;99.90;;;;;;4964039;28;20445;-69
2021/04/18 03:27:34;;;;;;;20.77;15.80;;;6.40;99.90;;;;;;4966868;28;20126;-69
2021/04/18 03:30:00;;;;;;;17.80;15.55;;;6.30;99.90;;;;;;4964623;28;20062;-69
2021/04/18 03:32:26;;;;;;;21.38;16.38;;;6.40;99.90;;;;;;4966835;28;20090;-68
2021/04/18 03:34:51;;;;;;;23.10;16.20;;;6.40;99.90;;;;;;4958265;28;20087;-69
2021/04/18 03:37:18;;;;;;;19.10;16.27;;;6.30;99.90;;;;;;4965509;28;20153;-68
2021/04/18 03:39:44;;;;;;;20.05;16.85;;;6.10;99.90;;;;;;4970099;28;20385;-69
2021/04/18 03:42:10;;;;;;;20.58;17.52;;;6.20;99.90;;;;;;4966540;28;20038;-68
2021/04/18 03:44:35;;;;;;;19.45;15.52;;;6.20;99.90;;;;;;4966964;28;20089;-69
2021/04/18 03:47:02;;;;;;;18.00;16.00;;;6.20;99.90;;;;;;4966420;28;20699;-69
2021/04/18 03:49:27;;;;;;;18.83;16.83;;;6.20;99.90;;;;;;4961860;28;20027;-69
2021/04/18 03:51:53;;;;;;;19.85;16.60;;;6.20;99.90;;;;;;4956680;28;20029;-68
2021/04/18 03:54:21;;;;;;;19.65;15.32;;;6.20;99.90;;;;;;4962063;28;20027;-70
2021/04/18 03:56:48;;;;;;;18.73;15.90;;;6.30;99.90;;;;;;4956951;28;20048;-68
2021/04/18 03:59:14;;;;;;;20.50;16.23;;;6.20;99.90;;;;;;4962429;28;20032;-70
2021/04/18 04:01:39;;;;;;;19.23;16.75;;;6.10;99.90;;;;;;4966787;28;20057;-68
2021/04/18 04:04:05;;;;;;;18.95;16.67;;;6.10;99.90;;;;;;4962902;28;20409;-70
2021/04/18 04:06:31;;;;;;;19.23;15.88;;;6.20;99.90;;;;;;4957863;28;20019;-70
2021/04/18 04:08:56;;;;;;;22.50;15.88;;;6.00;99.90;;;;;;4960753;28;20085;-70
2021/04/18 04:11:22;;;;;;;26.25;16.90;;;6.20;99.90;;;;;;4966271;28;20027;-70
2021/04/18 04:13:47;;;;;;;21.08;16.50;;;6.00;99.90;;;;;;4960255;28;20027;-69
2021/04/18 04:16:13;;;;;;;23.27;16.00;;;6.10;99.90;;;;;;4960765;28;20019;-70
2021/04/18 04:18:39;;;;;;;22.58;16.50;;;6.40;99.90;;;;;;4966571;28;20053;-70
2021/04/18 04:21:05;;;;;;;23.60;16.33;;;6.40;99.90;;;;;;4968712;28;20020;-70
2021/04/18 04:23:31;;;;;;;19.27;16.48;;;6.10;99.90;;;;;;4965353;28;20043;-70
2021/04/18 04:25:56;;;;;;;18.15;16.23;;;6.20;99.90;;;;;;4968705;28;20030;-70
2021/04/18 04:28:22;;;;;;;18.10;15.52;;;6.10;99.90;;;;;;4965963;28;20029;-70
2021/04/18 04:30:48;;;;;;;23.45;17.35;;;6.00;99.90;;;;;;4966713;28;20061;-70
2021/04/18 04:33:13;;;;;;;23.67;17.40;;;6.00;99.90;;;;;;4964038;28;20019;-70
2021/04/18 04:35:40;;;;;;;22.48;17.60;;;6.00;99.90;;;;;;4958778;28;20079;-70
2021/04/18 04:38:07;;;;;;;24.27;18.30;;;6.00;99.90;;;;;;4962928;28;20597;-70
2021/04/18 04:40:32;;;;;;;24.60;18.70;;;5.90;99.90;;;;;;4958140;28;20023;-70
2021/04/18 04:42:58;;;;;;;23.45;17.48;;;5.80;99.90;;;;;;4964149;28;20027;-70
2021/04/18 04:45:24;;;;;;;20.02;17.35;;;5.80;99.90;;;;;;4965172;28;20029;-70
2021/04/18 04:47:49;;;;;;;19.73;17.63;;;5.70;99.90;;;;;;4970423;28;20027;-70
2021/04/18 04:50:17;;;;;;;20.90;16.80;;;5.80;99.90;;;;;;4961828;28;20023;-70
2021/04/18 04:52:42;;;;;;;22.67;18.42;;;5.80;99.90;;;;;;4962492;28;20027;-70
2021/04/18 04:55:09;;;;;;;22.75;17.15;;;5.90;99.90;;;;;;4967745;28;20086;-69
2021/04/18 04:57:34;;;;;;;20.35;18.00;;;5.80;99.90;;;;;;4967856;28;20043;-69
2021/04/18 05:00:00;;;;;;;22.95;17.23;;;5.80;99.90;;;;;;4963803;28;20665;-69
2021/04/18 05:02:25;;;;;;;20.67;18.58;;;5.70;99.90;;;;;;4970516;28;20023;-70
2021/04/18 05:04:51;;;;;;;24.45;17.58;;;5.80;99.90;;;;;;4961713;28;20029;-70
2021/04/18 05:07:17;;;;;;;24.10;18.38;;;5.80;99.90;;;;;;4968154;28;20027;-70
2021/04/18 05:09:43;;;;;;;24.90;18.20;;;5.70;99.90;;;;;;4965312;28;20125;-69
2021/04/18 05:12:09;;;;;;;22.27;17.80;;;5.70;99.90;;;;;;4968922;28;20613;-70
2021/04/18 05:14:34;;;;;;;19.90;16.70;;;5.60;99.90;;;;;;4962570;28;20030;-68
2021/04/18 05:17:00;;;;;;;17.58;15.55;;;6.70;99.90;;;;;;4964506;28;20090;-68
2021/04/18 05:19:26;;;;;;;22.80;17.58;;;6.20;99.90;;;;;;4970322;28;20034;-68
2021/04/18 05:21:52;;;;;;;22.77;17.40;;;6.10;99.90;;;;;;4969192;28;20043;-68
2021/04/18 05:24:17;;;;;;;19.63;17.15;;;6.10;99.90;;;;;;4965614;28;20464;-68
2021/04/18 05:26:43;;;;;;;23.00;16.77;;;6.10;99.90;;;;;;4957063;28;20070;-68
2021/04/18 05:29:09;;;;;;;20.55;18.27;;;6.00;99.90;;;;;;4963895;28;20399;-68
2021/04/18 05:31:34;;;;;;;23.98;18.27;;;6.10;99.90;;;;;;4954667;28;20033;-68
2021/04/18 05:34:00;;;;;;;21.15;17.58;;;5.90;99.90;;;;;;4966465;28;20055;-68
2021/04/18 05:36:26;;;;;;;24.42;18.77;;;5.80;99.90;;;;;;4969366;28;20027;-68
2021/04/18 05:38:51;;;;;;;20.10;18.02;;;5.80;99.90;;;;;;4969019;28;20035;-69
2021/04/18 05:41:17;;;;;;;24.85;18.48;;;6.00;99.90;;;;;;4972099;28;20019;-69
2021/04/18 05:43:43;;;;;;;23.52;17.60;;;6.00;99.90;;;;;;4961061;28;20671;-69
2021/04/18 05:46:09;;;;;;;23.20;17.13;;;6.10;99.90;;;;;;4964323;28;20101;-68
2021/04/18 05:48:34;;;;;;;21.58;18.55;;;6.10;99.90;;;;;;4960953;28;20031;-68
2021/04/18 05:51:00;;;;;;;21.38;18.02;;;5.90;99.90;;;;;;4953372;28;20011;-68
2021/04/18 05:53:26;;;;;;;20.92;17.70;;;6.00;99.90;;;;;;4963481;28;20537;-68
2021/04/18 05:55:51;;;;;;;22.33;17.67;;;6.10;99.90;;;;;;4971868;28;20015;-67
2021/04/18 05:58:17;;;;;;;20.02;17.92;;;6.10;99.90;;;;;;4962816;28;20071;-68
2021/04/18 06:00:43;;;;;;;20.27;17.77;;;6.10;99.90;;;;;;4962167;28;20066;-71
2021/04/18 06:03:09;;;;;;;23.15;18.85;;;6.00;99.90;;;;;;4965640;28;20039;-68
2021/04/18 06:05:35;;;;;;;21.52;18.50;;;6.10;99.90;;;;;;4968901;28;20495;-67
2021/04/18 06:08:00;;;;;;;25.80;18.23;;;6.00;99.90;;;;;;4967524;28;20103;-68
2021/04/18 06:10:26;;;;;;;20.20;17.17;;;6.20;99.90;;;;;;4970359;28;20030;-68
2021/04/18 06:12:52;;;;;;;19.20;17.08;;;6.20;99.90;;;;;;4968725;28;20085;-68
2021/04/18 06:15:18;;;;;;;20.20;17.13;;;6.20;99.90;;;;;;4971552;28;20640;-70
2021/04/18 06:17:43;;;;;;;22.50;17.92;;;6.30;99.90;;;;;;4964239;28;20058;-67
2021/04/18 06:20:09;;;;;;;19.90;16.48;;;6.20;99.90;;;;;;4970965;28;20015;-68
2021/04/18 06:22:36;;;;;;;19.48;16.77;;;6.40;99.90;;;;;;4965204;28;20057;-69
2021/04/18 06:25:03;;;;;;;19.15;16.50;;;6.40;99.90;;;;;;4968444;28;20463;-68
2021/04/18 06:27:29;;;;;;;20.42;17.02;;;6.60;99.90;;;;;;4968344;28;20041;-69
2021/04/18 06:29:55;;;;;;;20.40;15.52;;;6.50;99.90;;;;;;4966605;28;20022;-67
2021/04/18 06:32:20;;;;;;;22.08;16.92;;;6.60;99.90;;;;;;4967101;28;20035;-70
2021/04/18 06:34:46;;;;;;;22.83;16.70;;;6.60;99.90;;;;;;4967977;28;20606;-67
2021/04/18 06:37:11;;;;;;;21.38;17.50;;;6.80;99.90;;;;;;4967394;28;20129;-70
2021/04/18 06:39:37;;;;;;;22.50;16.67;;;6.90;99.90;;;;;;4969381;28;20075;-70
2021/04/18 06:42:05;;;;;;;21.33;16.83;;;6.90;99.90;;;;;;4966912;28;20038;-67
2021/04/18 06:44:31;;;;;;;20.13;16.33;;;7.00;99.90;;;;;;4969602;28;20022;-70
2021/04/18 06:46:59;;;;;;;18.45;16.27;;;7.10;99.90;;;;;;4969078;28;20050;-69
2021/04/18 06:49:26;;;;;;;22.67;15.70;;;7.20;99.90;;;;;;4968325;28;20031;-70
2021/04/18 06:51:52;;;;;;;20.38;15.82;;;7.10;99.90;;;;;;4965846;28;20030;-69
2021/04/18 06:54:19;;;;;;;18.48;14.65;;;7.20;99.90;;;;;;4970166;28;20423;-70
2021/04/18 06:56:45;;;;;;;21.38;14.88;;;7.40;99.90;;;;;;4967965;28;20479;-70
2021/04/18 06:59:10;;;;;;;19.30;15.50;;;7.30;99.90;;;;;;4969532;28;20029;-69
2021/04/18 07:01:36;;;;;;;22.60;15.13;;;7.30;99.90;;;;;;4966213;28;20062;-66
2021/04/18 07:04:19;;;;;;;21.17;15.63;;;7.50;99.90;;;;;;4964476;28;20034;-70
2021/04/18 07:06:46;;;;;;;18.48;15.27;;;7.60;99.90;;;;;;4963422;28;20027;-69
2021/04/18 07:09:13;;;;;;;21.33;15.15;;;7.80;99.90;;;;;;4963705;28;20121;-69
2021/04/18 07:11:51;;;;;;;20.75;14.65;;;7.90;99.90;;;;;;4962674;28;20521;-68
2021/04/18 07:14:33;;;;;;;15.82;14.18;;;8.10;99.90;;;;;;4963892;28;20105;-68
2021/04/18 07:17:08;;;;;;;16.38;13.68;;;8.20;99.90;;;;;;4968597;28;20035;-68
2021/04/18 07:19:35;;;;;;;17.70;13.38;;;8.20;99.90;;;;;;4964753;28;20038;-65
2021/04/18 07:22:01;;;;;;;15.88;13.55;;;8.40;99.90;;;;;;4964624;28;20400;-65
2021/04/18 07:24:27;;;;;;;15.27;12.55;;;8.50;99.90;;;;;;4957010;28;20027;-64
2021/04/18 07:27:02;;;;;;;17.38;12.30;;;8.70;99.90;;;;;;4956553;28;20130;-64
2021/04/18 07:29:30;;;;;;;13.60;11.82;;;8.80;99.90;;;;;;4958337;28;20023;-64
2021/04/18 07:31:58;;;;;;;12.82;11.52;;;8.90;99.90;;;;;;4956503;28;20065;-64
2021/04/18 07:34:35;;;;;;;13.45;11.07;;;9.00;99.90;;;;;;4960366;28;20085;-65
2021/04/18 07:37:12;;;;;;;14.80;11.07;;;9.10;99.90;;;;;;4954902;28;20095;-65
2021/04/18 07:39:58;;;;;;;12.63;10.27;;;9.10;99.90;;;;;;4956428;28;20035;-64
2021/04/18 07:42:36;;;;;;;13.40;10.70;;;9.30;99.90;;;;;;4962394;28;20022;-65
2021/04/18 07:45:07;;;;;;;12.65;10.00;;;9.40;99.90;;;;;;4963536;28;20038;-64
2021/04/18 07:47:38;;;;;;;12.38;10.50;;;9.40;99.90;;;;;;4967344;28;20031;-64
2021/04/18 07:50:13;;;;;;;11.60;10.40;;;9.50;99.90;;;;;;4961064;28;20614;-64
2021/04/18 07:52:50;;;;;;;10.98;9.90;;;9.40;99.90;;;;;;4957006;28;20077;-64
2021/04/18 07:55:17;;;;;;;12.40;10.55;;;9.60;99.90;;;;;;4956824;28;20027;-64
2021/04/18 07:57:43;;;;;;;12.90;9.93;;;9.80;99.90;;;;;;4964748;28;20433;-64
2021/04/18 08:00:10;;;;;;;12.80;9.82;;;9.90;99.90;;;;;;4964248;28;20039;-64
2021/04/18 08:02:36;;;;;;;11.88;10.35;;;9.90;99.90;;;;;;4965566;28;20451;-64
2021/04/18 08:05:03;;;;;;;14.25;10.57;;;9.80;99.90;;;;;;4962507;28;20019;-64
2021/04/18 08:07:29;;;;;;;11.80;9.55;;;9.90;99.90;;;;;;4964623;28;20027;-65
2021/04/18 08:10:34;;;;;;;14.55;9.48;;;10.10;99.90;;;;;;4967447;28;20518;-65
2021/04/18 08:13:05;;;;;;;11.35;10.13;;;10.20;99.90;;;;;;4966238;28;20074;-65
2021/04/18 08:15:32;;;;;;;9.48;8.57;;;10.50;99.90;;;;;;4959261;28;20024;-64
2021/04/18 08:18:06;;;;;;;13.50;10.10;;;10.30;99.90;;;;;;4975422;28;20043;-64
2021/04/18 08:20:35;;;;;;;13.57;9.40;;;10.50;99.90;;;;;;4962455;28;20023;-64
2021/04/18 08:23:05;;;;;;;10.63;9.60;;;10.70;99.90;;;;;;4967970;28;20051;-64
2021/04/18 08:25:33;;;;;;;11.60;9.55;;;11.00;99.90;;;;;;4967036;28;20031;-64
2021/04/18 08:28:13;;;;;;;10.50;9.52;;;10.90;99.90;;;;;;4970935;28;20444;-64
2021/04/18 08:31:02;;;;;;;11.98;9.25;;;10.80;99.90;;;;;;4959763;28;20078;-65
2021/04/18 08:33:40;;;;;;;10.07;9.10;;;10.90;99.90;;;;;;4964023;28;20056;-64
2021/04/18 08:36:10;;;;;;;10.75;9.10;;;11.00;99.90;;;;;;4964636;28;20114;-65
2021/04/18 08:38:35;;;;;;;9.95;8.80;;;11.00;99.90;;;;;;4965375;28;20058;-64
2021/04/18 08:41:05;;;;;;;11.65;8.85;;;11.10;99.90;;;;;;4968990;28;20023;-65
2021/04/18 08:43:31;;;;;;;9.52;8.63;;;11.10;99.90;;;;;;4965380;28;20095;-67
2021/04/18 08:45:57;;;;;;;9.75;8.68;;;11.50;99.90;;;;;;4966103;28;20031;-68
2021/04/18 08:48:24;;;;;;;9.32;8.52;;;11.70;99.90;;;;;;4967877;28;20027;-68
2021/04/18 08:50:57;;;;;;;10.40;8.88;;;11.70;99.90;;;;;;4966629;28;20030;-69
2021/04/18 08:53:24;;;;;;;12.57;9.10;;;11.70;99.90;;;;;;4964072;28;20041;-74
2021/04/18 08:56:04;;;;;;;10.95;9.70;;;11.70;99.90;;;;;;4964609;28;20018;-73
2021/04/18 08:58:35;;;;;;;8.70;8.00;;;11.70;99.90;;;;;;4967062;28;20050;-72
2021/04/18 09:01:11;;;;;;;9.52;8.50;;;12.10;99.90;;;;;;4962032;28;20500;-74
2021/04/18 09:03:55;;;;;;;10.35;8.40;;;12.30;99.90;;;;;;4963244;28;20419;-73
2021/04/18 09:06:38;;;;;;;9.25;8.38;;;12.50;99.90;;;;;;4956253;28;20027;-74
2021/04/18 09:09:06;;;;;;;9.15;8.38;;;12.20;99.90;;;;;;4961509;28;20062;-73
2021/04/18 09:11:41;;;;;;;10.52;7.68;;;12.20;99.90;;;;;;4956044;28;20023;-73
2021/04/18 09:14:06;;;;;;;9.45;8.13;;;12.60;99.90;;;;;;4965024;28;20047;-73
2021/04/18 09:16:35;;;;;;;7.82;7.07;;;12.90;99.90;;;;;;4978500;28;20066;-73
2021/04/18 09:19:20;;;;;;;8.40;7.47;;;13.00;99.90;;;;;;4959416;28;20566;-73
2021/04/18 09:21:57;;;;;;;8.82;8.02;;;12.70;99.90;;;;;;4958894;28;20049;-73
2021/04/18 09:24:24;;;;;;;8.32;7.63;;;12.60;99.90;;;;;;4970381;28;20038;-73
2021/04/18 09:27:08;;;;;;;7.88;7.18;;;12.90;99.90;;;;;;4969248;28;20020;-73
2021/04/18 09:29:40;;;;;;;9.27;8.10;;;12.80;99.40;;;;;;4969173;28;20061;-73
2021/04/18 09:32:08;;;;;;;10.13;7.38;;;12.90;99.90;;;;;;4966904;28;20019;-74
2021/04/18 09:34:38;;;;;;;9.25;7.90;;;13.00;99.80;;;;;;4971199;28;20406;-73
2021/04/18 09:37:07;;;;;;;8.75;8.05;;;13.30;99.70;;;;;;4966752;28;20026;-73
2021/04/18 09:39:36;;;;;;;8.90;7.63;;;13.20;99.20;;;;;;4969409;28;20039;-73
2021/04/18 09:42:03;;;;;;;8.20;7.40;;;13.40;99.10;;;;;;4967993;28;20046;-73
2021/04/18 09:44:37;;;;;;;8.00;7.25;;;13.70;98.90;;;;;;4970060;28;20033;-73
2021/04/18 09:47:15;;;;;;;8.50;6.78;;;13.80;98.20;;;;;;4969675;28;20031;-73
2021/04/18 09:49:54;;;;;;;9.77;7.78;;;13.80;98.50;;;;;;4969678;28;20030;-73
2021/04/18 09:52:39;;;;;;;9.38;7.18;;;13.90;97.90;;;;;;4968012;28;20023;-71
2021/04/18 09:55:15;;;;;;;8.77;6.80;;;13.80;98.00;;;;;;4962176;28;20058;-73
2021/04/18 09:57:45;;;;;;;7.00;6.43;;;13.70;97.30;;;;;;4966668;28;20039;-73
2021/04/18 10:00:26;;;;;;;7.95;7.30;;;14.00;97.60;;;;;;4962586;28;20019;-74
2021/04/18 10:02:59;;;;;;;7.95;7.25;;;14.00;96.30;;;;;;4965183;28;20495;-73
2021/04/18 10:05:25;;;;;;;6.85;6.25;;;14.40;97.50;;;;;;4956995;28;20023;-73
2021/04/18 10:08:14;;;;;;;9.38;6.80;;;14.40;96.50;;;;;;4958681;28;20038;-72
2021/04/18 10:10:39;;;;;;;8.50;6.50;;;14.60;97.00;;;;;;4958566;28;20023;-74
2021/04/18 10:13:05;;;;;;;5.82;5.30;;;14.30;94.90;;;;;;4981129;28;20062;-73
2021/04/18 10:15:31;;;;;;;6.75;6.15;;;14.70;95.30;;;;;;4967971;28;20027;-74
2021/04/18 10:17:56;;;;;;;7.63;5.68;;;14.60;95.50;;;;;;4963470;28;20129;-71
2021/04/18 10:20:24;;;;;;;6.35;5.75;;;15.20;96.90;;;;;;4965333;28;20015;-70
2021/04/18 10:23:08;;;;;;;6.55;5.72;;;15.40;95.70;;;;;;4967142;28;20050;-72
2021/04/18 10:25:37;;;;;;;6.47;5.30;;;14.90;94.80;;;;;;4969874;28;20077;-72
2021/04/18 10:28:03;;;;;;;5.95;4.68;;;14.60;93.90;;;;;;4969587;28;20038;-73
2021/04/18 10:30:29;;;;;;;5.63;4.68;;;14.50;94.40;;;;;;4964799;28;20045;-70
2021/04/18 10:32:56;;;;;;;5.07;4.57;;;15.10;94.60;;;;;;4966865;28;20031;-73
2021/04/18 10:35:22;;;;;;;4.80;4.40;;;14.30;92.50;;;;;;4969743;28;20027;-70
2021/04/18 10:37:48;;;;;;;5.15;4.65;;;14.70;93.60;;;;;;4969636;28;20062;-68
2021/04/18 10:40:16;;;;;;;6.03;5.55;;;14.80;93.40;;;;;;4968614;28;20035;-71
2021/04/18 10:42:42;;;;;;;5.53;5.03;;;15.30;93.50;;;;;;4966507;28;20035;-73
2021/04/18 10:45:09;;;;;;;5.43;5.00;;;15.90;93.20;;;;;;4969810;28;20023;-73
2021/04/18 10:47:35;;;;;;;6.47;5.18;;;15.60;93.40;;;;;;4965267;28;20074;-72
2021/04/18 10:50:03;;;;;;;5.72;5.20;;;15.40;94.30;;;;;;4966999;28;20487;-74
2021/04/18 10:52:30;;;;;;;4.38;4.00;;;15.40;93.20;;;;;;4956420;28;20136;-73
2021/04/18 10:54:55;;;;;;;4.65;4.35;;;15.00;92.40;;;;;;4966365;28;20035;-72
2021/04/18 10:57:21;;;;;;;5.40;4.45;;;14.60;92.50;;;;;;4967110;28;20657;-73
2021/04/18 10:59:46;;;;;;;5.25;4.80;;;15.00;93.20;;;;;;4966406;28;20062;-71
2021/04/18 11:02:12;;;;;;;4.70;4.40;;;15.60;92.60;;;;;;4968336;28;20026;-73
2021/04/18 11:04:38;;;;;;;5.45;5.05;;;16.10;92.80;;;;;;4962456;28;20041;-72
2021/04/18 11:07:04;;;;;;;5.80;4.43;;;15.30;92.00;;;;;;4966576;28;20440;-72
2021/04/18 11:09:30;;;;;;;5.10;4.70;;;15.60;91.40;;;;;;4959684;28;20023;-73
2021/04/18 11:11:56;;;;;;;7.00;6.05;;;16.60;93.30;;;;;;4961314;28;20125;-72
2021/04/18 11:14:22;;;;;;;5.22;4.78;;;16.80;90.60;;;;;;4982732;28;20034;-73
2021/04/18 11:16:48;;;;;;;5.40;4.68;;;16.50;90.80;;;;;;4963062;28;20030;-72
2021/04/18 11:19:14;;;;;;;5.68;5.07;;;15.70;91.40;;;;;;4966536;28;20022;-71
2021/04/18 11:21:40;;;;;;;5.47;5.07;;;16.00;91.10;;;;;;4969292;28;20042;-72
2021/04/18 11:24:06;;;;;;;7.13;5.35;;;15.80;91.40;;;;;;4963367;28;20039;-73
2021/04/18 11:26:32;;;;;;;6.38;5.88;;;15.10;91.40;;;;;;4971022;28;20050;-73
2021/04/18 11:28:58;;;;;;;6.95;4.70;;;14.60;92.10;;;;;;4966139;28;20065;-73
2021/04/18 11:31:25;;;;;;;5.78;5.28;;;14.90;92.30;;;;;;4971044;28;20027;-73
2021/04/18 11:33:51;;;;;;;5.47;4.97;;;14.60;91.70;;;;;;4960324;28;20027;-72
2021/04/18 11:36:18;;;;;;;4.90;4.50;;;15.30;91.60;;;;;;4970990;28;20038;-71
2021/04/18 11:38:44;;;;;;;4.75;4.22;;;15.90;91.10;;;;;;4960734;28;20035;-72
2021/04/18 11:41:10;;;;;;;5.95;4.40;;;16.70;90.50;;;;;;4970967;28;20114;-72
2021/04/18 11:43:36;;;;;;;6.10;4.85;;;16.00;88.90;;;;;;4966496;28;20395;-72
2021/04/18 11:46:02;;;;;;;5.13;4.63;;;15.50;90.50;;;;;;4963965;28;20042;-72
2021/04/18 11:48:27;;;;;;;6.30;4.97;;;15.50;91.10;;;;;;4965894;28;20110;-72
2021/04/18 11:50:53;;;;;;;5.60;4.60;;;15.60;90.90;;;;;;4970360;28;20082;-73
2021/04/18 11:53:19;;;;;;;5.93;4.82;;;15.80;91.60;;;;;;4968231;28;20026;-73
2021/04/18 11:55:44;;;;;;;5.28;4.78;;;15.90;91.50;;;;;;4969626;28;20031;-72
2021/04/18 11:58:12;;;;;;;10.13;5.95;;;15.60;91.30;;;;;;4963992;28;20035;-72
2021/04/18 12:00:38;;;;;;;6.90;5.85;;;15.10;91.20;;;;;;4968227;28;20011;-72
2021/04/18 12:03:05;;;;;;;5.53;5.10;;;14.90;91.80;;;;;;4964970;28;20093;-72
2021/04/18 12:05:31;;;;;;;5.38;4.95;;;15.70;91.60;;;;;;4969250;28;20027;-72
2021/04/18 12:07:57;;;;;;;6.30;5.43;;;16.50;90.80;;;;;;4964154;28;20066;-73
2021/04/18 12:10:22;;;;;;;5.82;5.32;;;16.10;90.50;;;;;;4963690;28;20027;-72
2021/04/18 12:12:49;;;;;;;6.93;5.28;;;15.90;91.10;;;;;;4961853;28;20031;-69
2021/04/18 12:15:15;;;;;;;4.80;4.47;;;15.50;90.70;;;;;;4965856;28;20382;-68
2021/04/18 12:17:41;;;;;;;5.15;4.75;;;16.40;90.80;;;;;;4964087;28;20463;-68
2021/04/18 12:20:10;;;;;;;9.82;4.97;;;17.60;90.00;;;;;;4961969;28;20110;-67
2021/04/18 12:22:36;;;;;;;6.15;5.65;;;17.80;88.10;;;;;;4958052;28;20162;-68
2021/04/18 12:25:03;;;;;;;5.63;5.10;;;17.50;88.00;;;;;;4969940;28;20118;-68
2021/04/18 12:27:28;;;;;;;5.75;5.10;;;16.60;90.00;;;;;;4968305;28;20038;-68
2021/04/18 12:29:54;;;;;;;7.15;5.93;;;16.50;90.40;;;;;;4962997;28;20031;-68
2021/04/18 12:32:21;;;;;;;6.00;5.50;;;16.20;89.00;;;;;;4969523;28;20117;-68
2021/04/18 12:34:47;;;;;;;5.68;5.22;;;17.20;89.80;;;;;;4971916;28;20029;-68
2021/04/18 12:37:13;;;;;;;6.25;5.18;;;18.30;90.50;;;;;;4967211;28;20403;-67
2021/04/18 12:39:39;;;;;;;4.70;4.30;;;17.80;86.50;;;;;;4961643;28;20463;-68
2021/04/18 12:42:04;;;;;;;5.30;4.90;;;18.10;88.40;;;;;;4968289;28;20035;-67
2021/04/18 12:44:30;;;;;;;5.90;4.93;;;17.60;86.20;;;;;;4968471;28;20026;-68